sensor_id;sensor_type;location;lat;lon;timestamp;temperature;humidity
21801;DHT22;11062;51.164;16.924;2023-02-15T00:01:35;25.50;31.80
21801;DHT22;11062;51.164;16.924;2023-02-15T00:04:01;25.50;31.60
21801;DHT22;11062;51.164;16.924;2023-02-15T00:06:27;25.50;31.40
21801;DHT22;11062;51.164;16.924;2023-02-15T00:08:54;25.50;31.30
21801;DHT22;11062;51.164;16.924;2023-02-15T00:11:20;25.50;31.30
21801;DHT22;11062;51.164;16.924;2023-02-15T00:14:15;25.70;31.20
21801;DHT22;11062;51.164;16.924;2023-02-15T00:16:43;25.50;30.90
21801;DHT22;11062;51.164;16.924;2023-02-15T00:19:11;25.60;31.00
21801;DHT22;11062;51.164;16.924;2023-02-15T00:21:38;25.70;30.90
21801;DHT22;11062;51.164;16.924;2023-02-15T00:24:09;25.60;31.00
21801;DHT22;11062;51.164;16.924;2023-02-15T00:26:38;25.60;30.90
21801;DHT22;11062;51.164;16.924;2023-02-15T00:29:05;25.60;31.00
21801;DHT22;11062;51.164;16.924;2023-02-15T00:31:33;25.60;31.00
21801;DHT22;11062;51.164;16.924;2023-02-15T00:34:17;25.50;30.80
21801;DHT22;11062;51.164;16.924;2023-02-15T00:36:43;25.50;30.80
21801;DHT22;11062;51.164;16.924;2023-02-15T00:39:10;25.50;30.80
21801;DHT22;11062;51.164;16.924;2023-02-15T00:41:38;25.50;31.10
21801;DHT22;11062;51.164;16.924;2023-02-15T00:44:05;25.20;30.80
21801;DHT22;11062;51.164;16.924;2023-02-15T00:46:31;25.40;31.00
21801;DHT22;11062;51.164;16.924;2023-02-15T00:48:57;25.40;31.00
21801;DHT22;11062;51.164;16.924;2023-02-15T00:51:23;25.40;31.00
21801;DHT22;11062;51.164;16.924;2023-02-15T00:53:50;25.40;31.10
21801;DHT22;11062;51.164;16.924;2023-02-15T00:56:16;25.30;31.10
21801;DHT22;11062;51.164;16.924;2023-02-15T00:58:42;25.20;30.90
21801;DHT22;11062;51.164;16.924;2023-02-15T01:01:11;25.30;30.90
21801;DHT22;11062;51.164;16.924;2023-02-15T01:03:40;25.50;31.40
21801;DHT22;11062;51.164;16.924;2023-02-15T01:06:10;25.30;31.10
21801;DHT22;11062;51.164;16.924;2023-02-15T01:08:36;25.30;31.10
21801;DHT22;11062;51.164;16.924;2023-02-15T01:11:14;25.30;30.80
21801;DHT22;11062;51.164;16.924;2023-02-15T01:13:41;25.20;30.80
21801;DHT22;11062;51.164;16.924;2023-02-15T01:16:07;25.30;30.70
21801;DHT22;11062;51.164;16.924;2023-02-15T01:18:34;25.30;30.80
21801;DHT22;11062;51.164;16.924;2023-02-15T01:21:11;25.20;30.90
21801;DHT22;11062;51.164;16.924;2023-02-15T01:23:40;25.20;30.90
21801;DHT22;11062;51.164;16.924;2023-02-15T01:26:06;25.20;30.90
21801;DHT22;11062;51.164;16.924;2023-02-15T01:28:32;25.20;30.70
21801;DHT22;11062;51.164;16.924;2023-02-15T01:30:58;25.20;30.80
21801;DHT22;11062;51.164;16.924;2023-02-15T01:33:27;25.10;30.40
21801;DHT22;11062;51.164;16.924;2023-02-15T01:35:57;25.00;30.10
21801;DHT22;11062;51.164;16.924;2023-02-15T03:24:34;23.80;31.00
21801;DHT22;11062;51.164;16.924;2023-02-15T03:27:05;23.70;30.90
21801;DHT22;11062;51.164;16.924;2023-02-15T03:29:32;23.70;30.90
21801;DHT22;11062;51.164;16.924;2023-02-15T03:32:01;23.60;30.70
21801;DHT22;11062;51.164;16.924;2023-02-15T03:34:28;23.60;31.00
21801;DHT22;11062;51.164;16.924;2023-02-15T03:37:19;23.60;30.80
21801;DHT22;11062;51.164;16.924;2023-02-15T03:40:08;23.60;30.70
21801;DHT22;11062;51.164;16.924;2023-02-15T03:43:01;23.60;30.40
21801;DHT22;11062;51.164;16.924;2023-02-15T03:45:31;23.60;30.60
21801;DHT22;11062;51.164;16.924;2023-02-15T03:48:00;23.60;30.30
21801;DHT22;11062;51.164;16.924;2023-02-15T03:50:32;23.60;30.60
21801;DHT22;11062;51.164;16.924;2023-02-15T03:53:21;23.60;31.00
21801;DHT22;11062;51.164;16.924;2023-02-15T03:55:54;23.30;30.70
21801;DHT22;11062;51.164;16.924;2023-02-15T03:58:20;23.60;30.70
21801;DHT22;11062;51.164;16.924;2023-02-15T04:01:13;23.50;30.60
21801;DHT22;11062;51.164;16.924;2023-02-15T04:04:07;23.60;30.70
21801;DHT22;11062;51.164;16.924;2023-02-15T04:06:34;23.50;30.90
21801;DHT22;11062;51.164;16.924;2023-02-15T04:09:00;23.50;30.90
21801;DHT22;11062;51.164;16.924;2023-02-15T04:11:44;23.50;30.70
21801;DHT22;11062;51.164;16.924;2023-02-15T04:14:11;23.10;30.60
21801;DHT22;11062;51.164;16.924;2023-02-15T04:16:55;23.50;31.00
21801;DHT22;11062;51.164;16.924;2023-02-15T04:19:21;23.50;30.80
21801;DHT22;11062;51.164;16.924;2023-02-15T04:22:09;23.40;30.50
21801;DHT22;11062;51.164;16.924;2023-02-15T04:24:54;23.70;30.90
21801;DHT22;11062;51.164;16.924;2023-02-15T04:27:36;23.30;30.80
21801;DHT22;11062;51.164;16.924;2023-02-15T04:30:02;23.20;31.50
21801;DHT22;11062;51.164;16.924;2023-02-15T04:32:28;23.10;31.10
21801;DHT22;11062;51.164;16.924;2023-02-15T04:34:57;23.30;31.10
21801;DHT22;11062;51.164;16.924;2023-02-15T04:37:23;23.50;31.20
21801;DHT22;11062;51.164;16.924;2023-02-15T04:39:49;23.50;30.80
21801;DHT22;11062;51.164;16.924;2023-02-15T04:42:15;23.40;30.80
21801;DHT22;11062;51.164;16.924;2023-02-15T04:44:42;23.30;30.90
21801;DHT22;11062;51.164;16.924;2023-02-15T04:47:08;23.10;30.80
21801;DHT22;11062;51.164;16.924;2023-02-15T04:49:35;23.20;30.70
21801;DHT22;11062;51.164;16.924;2023-02-15T04:52:01;23.60;30.40
21801;DHT22;11062;51.164;16.924;2023-02-15T04:54:28;23.90;30.00
21801;DHT22;11062;51.164;16.924;2023-02-15T04:56:57;24.10;29.70
21801;DHT22;11062;51.164;16.924;2023-02-15T04:59:25;24.30;29.50
21801;DHT22;11062;51.164;16.924;2023-02-15T05:01:51;24.40;29.50
21801;DHT22;11062;51.164;16.924;2023-02-15T05:04:20;24.50;29.60
21801;DHT22;11062;51.164;16.924;2023-02-15T05:06:51;24.50;29.30
21801;DHT22;11062;51.164;16.924;2023-02-15T05:09:20;24.70;29.10
21801;DHT22;11062;51.164;16.924;2023-02-15T05:11:46;24.70;29.20
21801;DHT22;11062;51.164;16.924;2023-02-15T05:14:12;24.70;29.30
21801;DHT22;11062;51.164;16.924;2023-02-15T05:16:41;24.70;29.30
21801;DHT22;11062;51.164;16.924;2023-02-15T05:19:07;24.80;29.40
21801;DHT22;11062;51.164;16.924;2023-02-15T05:21:35;24.70;29.20
21801;DHT22;11062;51.164;16.924;2023-02-15T05:24:02;24.70;29.20
21801;DHT22;11062;51.164;16.924;2023-02-15T05:26:48;24.70;29.60
21801;DHT22;11062;51.164;16.924;2023-02-15T05:29:32;24.60;29.80
21801;DHT22;11062;51.164;16.924;2023-02-15T05:31:58;24.60;29.80
21801;DHT22;11062;51.164;16.924;2023-02-15T05:34:24;24.60;29.70
21801;DHT22;11062;51.164;16.924;2023-02-15T05:36:50;24.60;29.80
21801;DHT22;11062;51.164;16.924;2023-02-15T05:39:16;24.60;29.80
21801;DHT22;11062;51.164;16.924;2023-02-15T05:41:42;24.60;29.60
21801;DHT22;11062;51.164;16.924;2023-02-15T05:44:08;24.70;29.60
21801;DHT22;11062;51.164;16.924;2023-02-15T05:46:34;24.70;29.50
21801;DHT22;11062;51.164;16.924;2023-02-15T05:49:00;24.80;29.50
21801;DHT22;11062;51.164;16.924;2023-02-15T05:51:26;24.80;29.20
21801;DHT22;11062;51.164;16.924;2023-02-15T05:53:52;24.80;29.40
21801;DHT22;11062;51.164;16.924;2023-02-15T05:56:18;24.70;29.40
21801;DHT22;11062;51.164;16.924;2023-02-15T05:58:44;24.80;29.20
21801;DHT22;11062;51.164;16.924;2023-02-15T06:01:12;24.80;29.20
21801;DHT22;11062;51.164;16.924;2023-02-15T06:03:39;24.90;29.40
21801;DHT22;11062;51.164;16.924;2023-02-15T06:06:05;24.90;29.30
21801;DHT22;11062;51.164;16.924;2023-02-15T06:08:33;25.00;29.30
21801;DHT22;11062;51.164;16.924;2023-02-15T06:10:59;25.00;29.30
21801;DHT22;11062;51.164;16.924;2023-02-15T06:13:26;25.00;29.30
21801;DHT22;11062;51.164;16.924;2023-02-15T06:15:52;25.10;29.30
21801;DHT22;11062;51.164;16.924;2023-02-15T06:18:18;25.10;29.30
21801;DHT22;11062;51.164;16.924;2023-02-15T06:20:48;25.00;29.50
21801;DHT22;11062;51.164;16.924;2023-02-15T06:23:14;25.10;29.80
21801;DHT22;11062;51.164;16.924;2023-02-15T06:25:40;25.10;29.60
21801;DHT22;11062;51.164;16.924;2023-02-15T06:28:06;25.10;29.50
21801;DHT22;11062;51.164;16.924;2023-02-15T06:30:32;25.20;29.70
21801;DHT22;11062;51.164;16.924;2023-02-15T06:32:58;25.20;29.60
21801;DHT22;11062;51.164;16.924;2023-02-15T06:35:24;25.20;29.40
21801;DHT22;11062;51.164;16.924;2023-02-15T06:37:52;25.20;29.50
21801;DHT22;11062;51.164;16.924;2023-02-15T06:40:46;25.20;29.60
21801;DHT22;11062;51.164;16.924;2023-02-15T06:45:45;25.30;29.90
21801;DHT22;11062;51.164;16.924;2023-02-15T06:48:13;25.30;29.90
21801;DHT22;11062;51.164;16.924;2023-02-15T06:50:39;25.40;29.90
21801;DHT22;11062;51.164;16.924;2023-02-15T06:53:06;25.50;30.00
21801;DHT22;11062;51.164;16.924;2023-02-15T06:55:36;25.50;30.00
21801;DHT22;11062;51.164;16.924;2023-02-15T06:58:02;25.60;30.00
21801;DHT22;11062;51.164;16.924;2023-02-15T07:00:31;25.60;30.00
21801;DHT22;11062;51.164;16.924;2023-02-15T07:02:58;25.70;30.30
21801;DHT22;11062;51.164;16.924;2023-02-15T07:05:25;25.70;30.10
21801;DHT22;11062;51.164;16.924;2023-02-15T07:07:58;25.80;30.00
21801;DHT22;11062;51.164;16.924;2023-02-15T07:10:25;25.90;30.00
21801;DHT22;11062;51.164;16.924;2023-02-15T07:12:51;25.90;30.00
21801;DHT22;11062;51.164;16.924;2023-02-15T07:15:18;26.00;29.90
21801;DHT22;11062;51.164;16.924;2023-02-15T07:17:47;26.00;30.00
21801;DHT22;11062;51.164;16.924;2023-02-15T07:20:19;26.10;30.10
21801;DHT22;11062;51.164;16.924;2023-02-15T07:22:46;26.10;30.30
21801;DHT22;11062;51.164;16.924;2023-02-15T07:25:12;26.10;30.40
21801;DHT22;11062;51.164;16.924;2023-02-15T07:27:39;26.10;30.40
21801;DHT22;11062;51.164;16.924;2023-02-15T07:30:08;26.10;30.60
21801;DHT22;11062;51.164;16.924;2023-02-15T07:32:35;26.10;30.60
21801;DHT22;11062;51.164;16.924;2023-02-15T07:35:01;26.10;30.70
21801;DHT22;11062;51.164;16.924;2023-02-15T07:37:27;26.10;30.60
21801;DHT22;11062;51.164;16.924;2023-02-15T07:39:57;26.20;30.80
21801;DHT22;11062;51.164;16.924;2023-02-15T07:42:23;26.20;30.90
21801;DHT22;11062;51.164;16.924;2023-02-15T07:44:49;26.20;30.80
21801;DHT22;11062;51.164;16.924;2023-02-15T07:47:15;26.30;30.80
21801;DHT22;11062;51.164;16.924;2023-02-15T07:49:41;26.30;31.00
21801;DHT22;11062;51.164;16.924;2023-02-15T07:52:07;26.40;31.20
21801;DHT22;11062;51.164;16.924;2023-02-15T07:54:33;26.50;31.20
21801;DHT22;11062;51.164;16.924;2023-02-15T07:57:00;26.60;31.20
21801;DHT22;11062;51.164;16.924;2023-02-15T07:59:26;26.70;31.30
21801;DHT22;11062;51.164;16.924;2023-02-15T08:01:52;26.80;31.20
21801;DHT22;11062;51.164;16.924;2023-02-15T08:04:19;26.70;31.30
21801;DHT22;11062;51.164;16.924;2023-02-15T08:06:45;26.80;31.40
21801;DHT22;11062;51.164;16.924;2023-02-15T08:09:14;26.90;31.40
21801;DHT22;11062;51.164;16.924;2023-02-15T08:11:40;26.90;31.40
21801;DHT22;11062;51.164;16.924;2023-02-15T08:14:12;26.90;31.70
21801;DHT22;11062;51.164;16.924;2023-02-15T08:16:49;27.10;31.80
21801;DHT22;11062;51.164;16.924;2023-02-15T08:19:16;26.60;31.90
21801;DHT22;11062;51.164;16.924;2023-02-15T08:21:55;26.60;31.90
21801;DHT22;11062;51.164;16.924;2023-02-15T08:24:24;26.40;31.90
21801;DHT22;11062;51.164;16.924;2023-02-15T08:26:51;25.90;32.00
21801;DHT22;11062;51.164;16.924;2023-02-15T08:29:20;25.60;32.70
21801;DHT22;11062;51.164;16.924;2023-02-15T08:31:46;25.80;32.70
21801;DHT22;11062;51.164;16.924;2023-02-15T08:34:17;25.50;32.40
21801;DHT22;11062;51.164;16.924;2023-02-15T08:36:44;25.80;33.10
21801;DHT22;11062;51.164;16.924;2023-02-15T08:39:11;25.90;32.90
21801;DHT22;11062;51.164;16.924;2023-02-15T08:41:39;25.50;32.20
21801;DHT22;11062;51.164;16.924;2023-02-15T08:44:07;25.30;32.70
21801;DHT22;11062;51.164;16.924;2023-02-15T08:46:36;25.30;33.50
21801;DHT22;11062;51.164;16.924;2023-02-15T08:49:03;25.40;33.10
21801;DHT22;11062;51.164;16.924;2023-02-15T08:51:31;24.80;32.90
21801;DHT22;11062;51.164;16.924;2023-02-15T08:54:00;24.20;33.70
21801;DHT22;11062;51.164;16.924;2023-02-15T08:56:29;23.30;34.20
21801;DHT22;11062;51.164;16.924;2023-02-15T08:58:57;23.10;35.00
21801;DHT22;11062;51.164;16.924;2023-02-15T09:01:26;23.60;35.20
21801;DHT22;11062;51.164;16.924;2023-02-15T09:03:57;23.30;35.00
21801;DHT22;11062;51.164;16.924;2023-02-15T09:06:23;23.90;35.30
21801;DHT22;11062;51.164;16.924;2023-02-15T09:08:50;23.90;34.40
21801;DHT22;11062;51.164;16.924;2023-02-15T09:11:17;24.00;34.40
21801;DHT22;11062;51.164;16.924;2023-02-15T09:13:56;24.60;34.40
21801;DHT22;11062;51.164;16.924;2023-02-15T09:16:24;24.60;34.10
21801;DHT22;11062;51.164;16.924;2023-02-15T09:18:51;24.00;33.80
21801;DHT22;11062;51.164;16.924;2023-02-15T09:21:20;24.40;34.50
21801;DHT22;11062;51.164;16.924;2023-02-15T09:23:48;24.80;34.20
21801;DHT22;11062;51.164;16.924;2023-02-15T09:26:18;25.10;33.80
21801;DHT22;11062;51.164;16.924;2023-02-15T09:28:51;24.60;33.30
21801;DHT22;11062;51.164;16.924;2023-02-15T09:34:55;24.20;34.10
21801;DHT22;11062;51.164;16.924;2023-02-15T09:37:21;24.90;34.30
21801;DHT22;11062;51.164;16.924;2023-02-15T09:39:47;25.20;33.80
21801;DHT22;11062;51.164;16.924;2023-02-15T09:42:39;25.90;33.80
21801;DHT22;11062;51.164;16.924;2023-02-15T09:45:13;25.80;33.30
21801;DHT22;11062;51.164;16.924;2023-02-15T09:53:54;27.90;31.90
21801;DHT22;11062;51.164;16.924;2023-02-15T09:56:39;28.20;30.90
21801;DHT22;11062;51.164;16.924;2023-02-15T09:59:13;28.70;30.90
21801;DHT22;11062;51.164;16.924;2023-02-15T10:02:05;29.00;30.50
21801;DHT22;11062;51.164;16.924;2023-02-15T10:07:44;28.50;29.90
21801;DHT22;11062;51.164;16.924;2023-02-15T10:10:37;28.30;29.90
21801;DHT22;11062;51.164;16.924;2023-02-15T10:16:26;28.40;30.00
21801;DHT22;11062;51.164;16.924;2023-02-15T10:26:46;28.70;30.20
21801;DHT22;11062;51.164;16.924;2023-02-15T10:29:38;28.90;30.00
21801;DHT22;11062;51.164;16.924;2023-02-15T10:32:20;29.00;29.70
21801;DHT22;11062;51.164;16.924;2023-02-15T10:34:50;29.00;29.70
21801;DHT22;11062;51.164;16.924;2023-02-15T10:37:57;28.70;29.70
21801;DHT22;11062;51.164;16.924;2023-02-15T10:43:57;29.40;29.70
21801;DHT22;11062;51.164;16.924;2023-02-15T10:52:42;30.00;29.20
21801;DHT22;11062;51.164;16.924;2023-02-15T11:06:20;30.20;29.50
21801;DHT22;11062;51.164;16.924;2023-02-15T11:08:54;29.70;29.30
21801;DHT22;11062;51.164;16.924;2023-02-15T11:11:24;29.90;29.10
21801;DHT22;11062;51.164;16.924;2023-02-15T11:13:57;29.70;29.40
21801;DHT22;11062;51.164;16.924;2023-02-15T11:16:30;30.20;29.50
21801;DHT22;11062;51.164;16.924;2023-02-15T11:19:11;30.20;29.70
21801;DHT22;11062;51.164;16.924;2023-02-15T11:21:52;30.50;29.10
21801;DHT22;11062;51.164;16.924;2023-02-15T11:24:20;29.50;28.80
21801;DHT22;11062;51.164;16.924;2023-02-15T11:26:56;30.10;29.70
21801;DHT22;11062;51.164;16.924;2023-02-15T11:29:38;30.50;29.20
21801;DHT22;11062;51.164;16.924;2023-02-15T11:32:30;30.70;28.60
21801;DHT22;11062;51.164;16.924;2023-02-15T11:35:05;31.30;28.30
21801;DHT22;11062;51.164;16.924;2023-02-15T11:40:49;32.30;28.00
21801;DHT22;11062;51.164;16.924;2023-02-15T11:43:26;32.60;27.50
21801;DHT22;11062;51.164;16.924;2023-02-15T11:45:53;32.70;27.20
21801;DHT22;11062;51.164;16.924;2023-02-15T11:48:20;32.90;27.60
21801;DHT22;11062;51.164;16.924;2023-02-15T11:50:46;33.30;27.50
21801;DHT22;11062;51.164;16.924;2023-02-15T11:53:15;33.50;27.10
21801;DHT22;11062;51.164;16.924;2023-02-15T11:55:43;34.00;27.00
21801;DHT22;11062;51.164;16.924;2023-02-15T12:03:50;33.70;26.50
21801;DHT22;11062;51.164;16.924;2023-02-15T12:06:29;34.30;27.00
21801;DHT22;11062;51.164;16.924;2023-02-15T12:09:18;33.50;26.10
21801;DHT22;11062;51.164;16.924;2023-02-15T12:11:46;33.80;26.90
21801;DHT22;11062;51.164;16.924;2023-02-15T12:14:12;33.60;26.40
21801;DHT22;11062;51.164;16.924;2023-02-15T12:16:45;33.60;26.50
21801;DHT22;11062;51.164;16.924;2023-02-15T12:19:38;34.00;27.10
21801;DHT22;11062;51.164;16.924;2023-02-15T12:22:06;34.70;26.70
21801;DHT22;11062;51.164;16.924;2023-02-15T12:24:47;34.80;26.50
21801;DHT22;11062;51.164;16.924;2023-02-15T12:32:24;35.80;26.30
21801;DHT22;11062;51.164;16.924;2023-02-15T12:34:51;36.10;26.00
21801;DHT22;11062;51.164;16.924;2023-02-15T12:37:30;35.70;25.70
21801;DHT22;11062;51.164;16.924;2023-02-15T12:40:23;36.00;25.80
21801;DHT22;11062;51.164;16.924;2023-02-15T12:42:47;36.20;25.90
21801;DHT22;11062;51.164;16.924;2023-02-15T12:45:30;36.40;25.70
21801;DHT22;11062;51.164;16.924;2023-02-15T12:48:18;36.70;25.50
21801;DHT22;11062;51.164;16.924;2023-02-15T12:50:47;36.90;25.40
21801;DHT22;11062;51.164;16.924;2023-02-15T12:53:20;37.10;25.30
21801;DHT22;11062;51.164;16.924;2023-02-15T12:55:55;37.40;25.20
21801;DHT22;11062;51.164;16.924;2023-02-15T12:58:23;37.60;25.00
21801;DHT22;11062;51.164;16.924;2023-02-15T13:04:01;37.80;25.10
21801;DHT22;11062;51.164;16.924;2023-02-15T13:06:27;38.00;24.80
21801;DHT22;11062;51.164;16.924;2023-02-15T13:09:20;38.00;24.70
21801;DHT22;11062;51.164;16.924;2023-02-15T13:11:45;37.80;24.60
21801;DHT22;11062;51.164;16.924;2023-02-15T13:14:28;37.90;25.00
21801;DHT22;11062;51.164;16.924;2023-02-15T13:17:00;38.20;24.90
21801;DHT22;11062;51.164;16.924;2023-02-15T13:19:44;38.00;24.40
21801;DHT22;11062;51.164;16.924;2023-02-15T13:22:15;37.60;24.50
21801;DHT22;11062;51.164;16.924;2023-02-15T13:27:15;36.90;24.50
21801;DHT22;11062;51.164;16.924;2023-02-15T13:29:49;36.00;24.70
21801;DHT22;11062;51.164;16.924;2023-02-15T13:32:30;36.00;25.20
21801;DHT22;11062;51.164;16.924;2023-02-15T13:34:59;36.20;25.50
21801;DHT22;11062;51.164;16.924;2023-02-15T13:49:14;37.60;24.90
21801;DHT22;11062;51.164;16.924;2023-02-15T14:00:13;37.80;24.60
21801;DHT22;11062;51.164;16.924;2023-02-15T14:10:55;37.40;24.40
21801;DHT22;11062;51.164;16.924;2023-02-15T14:13:59;37.40;24.60
21801;DHT22;11062;51.164;16.924;2023-02-15T14:16:27;37.10;24.70
21801;DHT22;11062;51.164;16.924;2023-02-15T14:21:48;37.10;24.80
21801;DHT22;11062;51.164;16.924;2023-02-15T14:29:59;37.40;25.00
21801;DHT22;11062;51.164;16.924;2023-02-15T14:32:45;36.80;25.10
21801;DHT22;11062;51.164;16.924;2023-02-15T14:35:17;37.10;25.20
21801;DHT22;11062;51.164;16.924;2023-02-15T14:37:51;37.20;25.20
21801;DHT22;11062;51.164;16.924;2023-02-15T14:46:38;37.30;25.20
21801;DHT22;11062;51.164;16.924;2023-02-15T14:56:42;37.20;25.30
21801;DHT22;11062;51.164;16.924;2023-02-15T14:59:22;36.90;25.50
21801;DHT22;11062;51.164;16.924;2023-02-15T15:01:58;36.90;25.50
21801;DHT22;11062;51.164;16.924;2023-02-15T15:04:32;36.90;25.50
21801;DHT22;11062;51.164;16.924;2023-02-15T15:07:22;36.80;25.70
21801;DHT22;11062;51.164;16.924;2023-02-15T15:10:05;36.70;25.70
21801;DHT22;11062;51.164;16.924;2023-02-15T15:12:42;36.40;25.80
21801;DHT22;11062;51.164;16.924;2023-02-15T15:15:13;36.30;25.90
21801;DHT22;11062;51.164;16.924;2023-02-15T15:22:43;35.40;26.60
21801;DHT22;11062;51.164;16.924;2023-02-15T15:27:55;34.90;26.90
21801;DHT22;11062;51.164;16.924;2023-02-15T15:44:19;34.00;27.50
21801;DHT22;11062;51.164;16.924;2023-02-15T15:49:38;33.70;27.70
21801;DHT22;11062;51.164;16.924;2023-02-15T15:52:19;33.70;27.70
21801;DHT22;11062;51.164;16.924;2023-02-15T15:54:47;33.60;27.80
21801;DHT22;11062;51.164;16.924;2023-02-15T15:57:31;33.50;27.80
21801;DHT22;11062;51.164;16.924;2023-02-15T15:59:58;33.40;27.80
21801;DHT22;11062;51.164;16.924;2023-02-15T16:02:27;33.30;27.90
21801;DHT22;11062;51.164;16.924;2023-02-15T16:04:53;33.20;28.00
21801;DHT22;11062;51.164;16.924;2023-02-15T16:10:19;32.70;28.20
21801;DHT22;11062;51.164;16.924;2023-02-15T16:12:47;32.70;28.30
21801;DHT22;11062;51.164;16.924;2023-02-15T16:15:20;32.50;28.40
21801;DHT22;11062;51.164;16.924;2023-02-15T16:17:50;32.50;28.50
21801;DHT22;11062;51.164;16.924;2023-02-15T16:20:26;32.30;28.50
21801;DHT22;11062;51.164;16.924;2023-02-15T16:28:55;32.00;28.70
21801;DHT22;11062;51.164;16.924;2023-02-15T16:31:21;31.90;28.80
21801;DHT22;11062;51.164;16.924;2023-02-15T16:33:51;31.80;28.80
21801;DHT22;11062;51.164;16.924;2023-02-15T16:36:26;31.60;28.80
21801;DHT22;11062;51.164;16.924;2023-02-15T16:39:05;31.60;28.80
21801;DHT22;11062;51.164;16.924;2023-02-15T16:41:32;31.60;28.90
21801;DHT22;11062;51.164;16.924;2023-02-15T16:44:02;31.50;28.80
21801;DHT22;11062;51.164;16.924;2023-02-15T16:46:35;31.60;28.80
21801;DHT22;11062;51.164;16.924;2023-02-15T16:49:28;31.50;28.70
21801;DHT22;11062;51.164;16.924;2023-02-15T16:52:00;31.50;28.80
21801;DHT22;11062;51.164;16.924;2023-02-15T16:54:29;31.50;28.90
21801;DHT22;11062;51.164;16.924;2023-02-15T16:56:57;31.30;28.80
21801;DHT22;11062;51.164;16.924;2023-02-15T17:01:54;31.20;28.80
21801;DHT22;11062;51.164;16.924;2023-02-15T17:07:13;31.00;28.80
21801;DHT22;11062;51.164;16.924;2023-02-15T17:09:56;31.00;28.80
21801;DHT22;11062;51.164;16.924;2023-02-15T17:15:28;30.80;28.80
21801;DHT22;11062;51.164;16.924;2023-02-15T17:18:00;30.70;28.90
21801;DHT22;11062;51.164;16.924;2023-02-15T17:20:27;30.60;28.80
21801;DHT22;11062;51.164;16.924;2023-02-15T17:22:54;30.50;28.80
21801;DHT22;11062;51.164;16.924;2023-02-15T17:25:26;30.30;28.60
21801;DHT22;11062;51.164;16.924;2023-02-15T17:28:01;30.20;28.90
21801;DHT22;11062;51.164;16.924;2023-02-15T17:30:30;30.10;28.80
21801;DHT22;11062;51.164;16.924;2023-02-15T17:33:05;30.00;28.90
21801;DHT22;11062;51.164;16.924;2023-02-15T17:35:44;29.90;28.80
21801;DHT22;11062;51.164;16.924;2023-02-15T17:38:26;29.70;28.90
21801;DHT22;11062;51.164;16.924;2023-02-15T17:40:52;29.70;29.00
21801;DHT22;11062;51.164;16.924;2023-02-15T17:43:18;29.60;28.90
21801;DHT22;11062;51.164;16.924;2023-02-15T17:46:05;29.50;29.00
21801;DHT22;11062;51.164;16.924;2023-02-15T17:48:35;29.50;29.20
21801;DHT22;11062;51.164;16.924;2023-02-15T17:51:03;29.30;29.40
21801;DHT22;11062;51.164;16.924;2023-02-15T17:53:30;29.30;29.40
21801;DHT22;11062;51.164;16.924;2023-02-15T17:55:57;29.30;29.90
21801;DHT22;11062;51.164;16.924;2023-02-15T17:58:23;29.30;29.30
21801;DHT22;11062;51.164;16.924;2023-02-15T18:00:52;29.30;29.40
21801;DHT22;11062;51.164;16.924;2023-02-15T18:03:43;29.20;29.30
21801;DHT22;11062;51.164;16.924;2023-02-15T18:06:31;29.10;29.10
21801;DHT22;11062;51.164;16.924;2023-02-15T18:09:18;29.10;29.10
21801;DHT22;11062;51.164;16.924;2023-02-15T18:12:30;29.00;29.20
21801;DHT22;11062;51.164;16.924;2023-02-15T18:14:57;29.00;29.30
21801;DHT22;11062;51.164;16.924;2023-02-15T18:17:44;28.90;29.40
21801;DHT22;11062;51.164;16.924;2023-02-15T18:22:43;28.80;29.70
21801;DHT22;11062;51.164;16.924;2023-02-15T18:25:14;28.70;29.50
21801;DHT22;11062;51.164;16.924;2023-02-15T18:27:40;28.60;29.30
21801;DHT22;11062;51.164;16.924;2023-02-15T18:30:07;28.60;29.30
21801;DHT22;11062;51.164;16.924;2023-02-15T18:32:35;28.60;29.40
21801;DHT22;11062;51.164;16.924;2023-02-15T18:35:03;28.50;29.50
21801;DHT22;11062;51.164;16.924;2023-02-15T18:37:31;28.40;29.40
21801;DHT22;11062;51.164;16.924;2023-02-15T18:39:58;28.40;29.20
21801;DHT22;11062;51.164;16.924;2023-02-15T18:42:36;28.40;29.20
21801;DHT22;11062;51.164;16.924;2023-02-15T18:45:18;28.40;29.20
21801;DHT22;11062;51.164;16.924;2023-02-15T18:47:46;28.20;29.50
21801;DHT22;11062;51.164;16.924;2023-02-15T18:50:13;28.40;29.50
21801;DHT22;11062;51.164;16.924;2023-02-15T18:52:40;28.50;29.50
21801;DHT22;11062;51.164;16.924;2023-02-15T18:55:22;28.50;29.30
21801;DHT22;11062;51.164;16.924;2023-02-15T18:57:50;28.60;29.40
21801;DHT22;11062;51.164;16.924;2023-02-15T19:00:23;28.50;29.20
21801;DHT22;11062;51.164;16.924;2023-02-15T19:02:55;28.50;29.00
21801;DHT22;11062;51.164;16.924;2023-02-15T19:05:22;28.50;29.00
21801;DHT22;11062;51.164;16.924;2023-02-15T19:07:52;28.50;29.20
21801;DHT22;11062;51.164;16.924;2023-02-15T19:10:21;28.50;29.10
21801;DHT22;11062;51.164;16.924;2023-02-15T19:12:48;28.40;28.90
21801;DHT22;11062;51.164;16.924;2023-02-15T19:15:15;28.40;29.10
21801;DHT22;11062;51.164;16.924;2023-02-15T19:17:41;28.40;28.90
21801;DHT22;11062;51.164;16.924;2023-02-15T19:20:21;28.40;28.90
21801;DHT22;11062;51.164;16.924;2023-02-15T19:22:49;28.40;29.20
21801;DHT22;11062;51.164;16.924;2023-02-15T19:25:21;28.30;29.50
21801;DHT22;11062;51.164;16.924;2023-02-15T19:30:20;27.30;29.40
21801;DHT22;11062;51.164;16.924;2023-02-15T19:35:15;26.20;30.00
21801;DHT22;11062;51.164;16.924;2023-02-15T19:37:45;25.90;30.10
21801;DHT22;11062;51.164;16.924;2023-02-15T19:40:24;25.40;30.30
21801;DHT22;11062;51.164;16.924;2023-02-15T19:42:50;25.70;31.00
21801;DHT22;11062;51.164;16.924;2023-02-15T19:45:19;25.50;32.10
21801;DHT22;11062;51.164;16.924;2023-02-15T19:47:45;25.20;31.20
21801;DHT22;11062;51.164;16.924;2023-02-15T19:50:28;25.00;30.90
21801;DHT22;11062;51.164;16.924;2023-02-15T19:52:55;25.20;33.40
21801;DHT22;11062;51.164;16.924;2023-02-15T19:55:29;25.00;33.80
21801;DHT22;11062;51.164;16.924;2023-02-15T19:58:00;25.00;31.40
21801;DHT22;11062;51.164;16.924;2023-02-15T20:00:27;25.00;31.90
21801;DHT22;11062;51.164;16.924;2023-02-15T20:02:54;25.00;31.80
21801;DHT22;11062;51.164;16.924;2023-02-15T20:05:20;24.90;31.80
21801;DHT22;11062;51.164;16.924;2023-02-15T20:07:49;24.90;32.40
21801;DHT22;11062;51.164;16.924;2023-02-15T20:10:27;24.90;32.40
21801;DHT22;11062;51.164;16.924;2023-02-15T20:12:53;24.90;32.10
21801;DHT22;11062;51.164;16.924;2023-02-15T20:15:28;24.80;32.20